createdAt,value
2022-12-04T00:01:29.473Z,101945.81
2022-12-04T00:03:58.653Z,101945.09
2022-12-04T00:06:27.088Z,101939.06
2022-12-04T00:08:55.614Z,101933.88
2022-12-04T00:11:28.397Z,101936.44
2022-12-04T00:14:01.416Z,101935.44
2022-12-04T00:16:33.309Z,101943.13
2022-12-04T00:19:01.393Z,101934.88
2022-12-04T00:21:29.445Z,101927.38
2022-12-04T00:23:57.558Z,101926.41
2022-12-04T00:26:29.205Z,101932.44
2022-12-04T00:28:57.601Z,101924.81
2022-12-04T00:31:27.151Z,101918.03
2022-12-04T00:33:55.885Z,101918.97
2022-12-04T00:36:26.492Z,101924.22
2022-12-04T00:38:55.133Z,101928.97
2022-12-04T00:41:24.927Z,101914.69
2022-12-04T00:43:54.500Z,101919.38
2022-12-04T00:46:23.629Z,101921.59
2022-12-04T00:48:52.676Z,101917.19
2022-12-04T00:51:22.490Z,101922.22
2022-12-04T00:53:50.833Z,101931.41
2022-12-04T00:56:22.225Z,101918.44
2022-12-04T00:58:54.613Z,101921.94
2022-12-04T01:01:23.919Z,101918.84
2022-12-04T01:03:52.042Z,101917.28
2022-12-04T01:06:22.596Z,101918.13
2022-12-04T01:08:51.137Z,101912.94
2022-12-04T01:11:20.612Z,101916.41
2022-12-04T01:13:48.807Z,101909.31
2022-12-04T01:16:20.194Z,101901.03
2022-12-04T01:18:48.641Z,101904.81
2022-12-04T01:21:17.171Z,101909.06
2022-12-04T01:23:45.563Z,101913.38
2022-12-04T01:26:14.289Z,101907.56
2022-12-04T01:28:43.112Z,101911.63
2022-12-04T01:31:13.961Z,101905.06
2022-12-04T01:33:44.669Z,101904.59
2022-12-04T01:36:15.806Z,101904.91
2022-12-04T01:38:44.662Z,101901.94
2022-12-04T01:41:15.136Z,101890.53
2022-12-04T01:43:44.063Z,101897.16
2022-12-04T01:46:13.116Z,101894.59
2022-12-04T01:48:48.053Z,101886.13
2022-12-04T01:51:20.781Z,101885.34
2022-12-04T01:53:52.970Z,101891.59
2022-12-04T01:56:22.991Z,101886.03
2022-12-04T01:58:56.260Z,101903.69
2022-12-04T02:01:24.667Z,101904.91
2022-12-04T02:04:06.037Z,101909.31
2022-12-04T02:06:34.105Z,101909.66
2022-12-04T02:09:02.519Z,101907.47
2022-12-04T02:11:39.875Z,101911.69
2022-12-04T02:14:22.146Z,101899.97
2022-12-04T02:16:56.525Z,101896.34
2022-12-04T02:20:00.002Z,101895.41
2022-12-04T02:22:44.087Z,101897.16
2022-12-04T02:25:25.096Z,101905.78
2022-12-04T02:28:14.217Z,101890.44
2022-12-04T02:30:46.145Z,101884.69
2022-12-04T02:33:22.245Z,101893.25
2022-12-04T02:35:54.663Z,101901.38
2022-12-04T02:38:28.055Z,101895.47
2022-12-04T02:41:01.834Z,101901.94
2022-12-04T02:43:39.284Z,101909.34
2022-12-04T02:46:13.616Z,101910.28
2022-12-04T02:48:45.846Z,101915.53
2022-12-04T02:51:17.541Z,101911.09
2022-12-04T02:53:51.705Z,101911.44
2022-12-04T02:56:25.956Z,101909.47
2022-12-04T02:58:58.697Z,101910.19
2022-12-04T03:01:34.001Z,101909.25
2022-12-04T03:04:06.754Z,101905.88
2022-12-04T03:06:38.202Z,101892.41
2022-12-04T03:09:11.321Z,101883.03
2022-12-04T03:11:42.138Z,101885.78
2022-12-04T03:14:16.725Z,101883.38
2022-12-04T03:16:46.729Z,101890.63
2022-12-04T03:19:24.087Z,101885.69
2022-12-04T03:21:56.353Z,101872.69
2022-12-04T03:24:28.419Z,101872.53
2022-12-04T03:27:02.330Z,101871.91
2022-12-04T03:29:37.031Z,101879.00
2022-12-04T03:32:12.610Z,101881.09
2022-12-04T03:34:51.222Z,101878.88
2022-12-04T03:37:27.457Z,101880.91
2022-12-04T03:40:00.136Z,101890.81
2022-12-04T03:42:36.979Z,101876.16
2022-12-04T03:45:11.885Z,101877.94
2022-12-04T03:47:45.544Z,101870.44
2022-12-04T03:50:19.549Z,101865.56
2022-12-04T03:52:54.185Z,101883.28
2022-12-04T03:55:27.461Z,101870.50
2022-12-04T03:58:00.138Z,101870.34
2022-12-04T04:00:32.347Z,101876.78
2022-12-04T04:03:05.683Z,101879.69
2022-12-04T04:05:37.363Z,101888.41
2022-12-04T04:08:23.005Z,101891.84
2022-12-04T04:10:53.768Z,101900.34
2022-12-04T04:13:43.737Z,101896.81
2022-12-04T04:16:35.471Z,101892.41
2022-12-04T04:19:21.932Z,101893.19
2022-12-04T04:22:11.089Z,101891.16
2022-12-04T04:24:44.375Z,101894.69
2022-12-04T04:27:12.728Z,101906.50
2022-12-04T04:29:41.068Z,101893.34
2022-12-04T04:32:15.748Z,101892.38
2022-12-04T04:34:52.241Z,101887.44
2022-12-04T04:37:30.496Z,101872.47
2022-12-04T04:40:05.205Z,101881.47
2022-12-04T04:42:40.684Z,101874.06
2022-12-04T04:45:17.818Z,101878.25
2022-12-04T04:47:53.883Z,101873.16
2022-12-04T04:50:23.129Z,101875.72
2022-12-04T04:52:54.827Z,101885.25
2022-12-04T04:55:23.575Z,101882.00
2022-12-04T04:57:51.659Z,101877.03
2022-12-04T05:00:22.342Z,101877.03
2022-12-04T05:02:51.850Z,101879.00
2022-12-04T05:05:19.911Z,101882.41
2022-12-04T05:07:47.967Z,101881.69
2022-12-04T05:10:15.975Z,101885.09
2022-12-04T05:12:43.941Z,101894.50
2022-12-04T05:15:12.489Z,101884.97
2022-12-04T05:17:40.485Z,101892.38
2022-12-04T05:20:11.945Z,101888.69
2022-12-04T05:22:39.936Z,101881.47
2022-12-04T05:25:08.618Z,101886.22
2022-12-04T05:27:36.867Z,101895.22
2022-12-04T05:30:06.385Z,101883.91
2022-12-04T05:32:34.574Z,101894.03
2022-12-04T05:35:07.726Z,101894.16
2022-12-04T05:37:43.634Z,101893.16
2022-12-04T05:40:12.349Z,101892.19
2022-12-04T05:42:41.576Z,101894.94
2022-12-04T05:45:10.197Z,101890.53
2022-12-04T05:47:40.412Z,101893.59
2022-12-04T05:50:09.366Z,101886.53
2022-12-04T05:52:37.649Z,101872.78
2022-12-04T05:55:07.511Z,101891.47
2022-12-04T05:57:35.534Z,101885.56
2022-12-04T06:00:03.547Z,101888.13
2022-12-04T06:02:31.932Z,101882.22
2022-12-04T06:04:59.961Z,101888.81
2022-12-04T06:07:28.016Z,101893.84
2022-12-04T06:09:57.510Z,101894.13
2022-12-04T06:12:27.269Z,101896.59
2022-12-04T06:14:55.451Z,101896.75
2022-12-04T06:17:23.525Z,101905.50
2022-12-04T06:19:53.514Z,101913.06
2022-12-04T06:22:22.042Z,101903.13
2022-12-04T06:24:50.142Z,101904.97
2022-12-04T06:27:33.511Z,101904.97
2022-12-04T06:30:03.105Z,101920.16
2022-12-04T06:32:31.111Z,101921.97
2022-12-04T06:34:59.125Z,101919.28
2022-12-04T06:37:27.291Z,101903.22
2022-12-04T06:39:55.819Z,101908.03
2022-12-04T06:42:24.272Z,101902.22
2022-12-04T06:44:52.268Z,101912.53
2022-12-04T06:47:21.602Z,101902.31
2022-12-04T06:49:51.472Z,101916.94
2022-12-04T06:52:19.755Z,101916.34
2022-12-04T06:54:47.928Z,101920.34
2022-12-04T06:57:16.032Z,101922.59
2022-12-04T06:59:44.032Z,101924.53
2022-12-04T07:02:12.399Z,101924.09
2022-12-04T07:04:41.843Z,101925.28
2022-12-04T07:07:10.803Z,101921.28
2022-12-04T07:09:39.025Z,101930.94
2022-12-04T07:12:07.614Z,101931.28
2022-12-04T07:14:35.654Z,101932.44
2022-12-04T07:17:03.966Z,101919.56
2022-12-04T07:19:32.073Z,101927.94
2022-12-04T07:22:01.476Z,101935.63
2022-12-04T07:24:29.491Z,101927.84
2022-12-04T07:26:57.507Z,101925.00
2022-12-04T07:29:25.491Z,101921.38
2022-12-04T07:31:53.602Z,101916.81
2022-12-04T07:34:21.621Z,101919.97
2022-12-04T07:36:49.637Z,101918.19
2022-12-04T07:39:19.048Z,101919.97
2022-12-04T07:41:47.087Z,101924.88
2022-12-04T07:44:15.099Z,101921.47
2022-12-04T07:46:43.071Z,101924.09
2022-12-04T07:49:13.446Z,101917.75
2022-12-04T07:51:41.507Z,101909.81
2022-12-04T07:54:10.112Z,101908.81
2022-12-04T07:56:39.508Z,101905.09
2022-12-04T07:59:10.530Z,101915.16
2022-12-04T08:01:38.664Z,101919.00
2022-12-04T08:04:06.994Z,101931.78
2022-12-04T08:06:36.350Z,101931.06
2022-12-04T08:09:09.741Z,101933.59
2022-12-04T08:11:40.061Z,101935.38
2022-12-04T08:14:09.841Z,101929.84
2022-12-04T08:16:38.407Z,101924.66
2022-12-04T08:19:06.798Z,101929.41
2022-12-04T08:21:35.237Z,101942.78
2022-12-04T08:24:04.066Z,101944.56
2022-12-04T08:26:33.850Z,101944.47
2022-12-04T08:29:04.331Z,101947.72
2022-12-04T08:31:35.645Z,101935.53
2022-12-04T08:34:05.963Z,101932.19
2022-12-04T08:36:35.256Z,101930.97
2022-12-04T08:39:03.281Z,101932.94
2022-12-04T08:41:31.409Z,101926.94
2022-12-04T08:43:59.687Z,101920.25
2022-12-04T08:46:29.765Z,101916.19
2022-12-04T08:48:57.898Z,101921.66
2022-12-04T08:51:28.512Z,101926.59
2022-12-04T08:53:57.865Z,101949.91
2022-12-04T08:56:26.821Z,101952.31
2022-12-04T08:58:56.342Z,101932.63
2022-12-04T09:01:25.648Z,101956.09
2022-12-04T09:03:55.888Z,101961.16
2022-12-04T09:06:24.328Z,101964.41
2022-12-04T09:08:54.859Z,101956.19
2022-12-04T09:11:24.558Z,101953.44
2022-12-04T09:13:53.492Z,101947.63
2022-12-04T09:16:23.559Z,101944.47
2022-12-04T09:18:51.821Z,101939.63
2022-12-04T09:21:22.753Z,101944.94
2022-12-04T09:23:50.860Z,101940.69
2022-12-04T09:26:23.240Z,101950.22
2022-12-04T09:28:52.145Z,101944.50
2022-12-04T09:31:21.255Z,101934.91
2022-12-04T09:33:49.823Z,101945.50
2022-12-04T09:36:18.333Z,101945.16
2022-12-04T09:38:49.829Z,101945.00
2022-12-04T09:41:45.945Z,101943.25
2022-12-04T09:44:20.781Z,101935.28
2022-12-04T09:46:54.228Z,101951.00
2022-12-04T09:49:26.636Z,101951.88
2022-12-04T09:51:59.479Z,101956.72
2022-12-04T09:54:35.216Z,101955.31
2022-12-04T09:57:11.823Z,101959.09
2022-12-04T09:59:40.028Z,101960.88
2022-12-04T10:02:25.662Z,101955.22
2022-12-04T10:04:53.941Z,101959.81
2022-12-04T10:07:29.098Z,101952.06
2022-12-04T10:10:06.885Z,101959.09
2022-12-04T10:12:47.717Z,101960.00
2022-12-04T10:15:28.618Z,101960.78
2022-12-04T10:18:12.053Z,101961.75
2022-12-04T10:20:52.461Z,101958.75
2022-12-04T10:23:32.941Z,101961.72
2022-12-04T10:26:05.346Z,101968.25
2022-12-04T10:28:39.283Z,101970.78
2022-12-04T10:31:14.721Z,101974.28
2022-12-04T10:33:47.469Z,101966.38
2022-12-04T10:36:18.534Z,101957.53
2022-12-04T10:38:51.247Z,101965.47
2022-12-04T10:41:27.479Z,101966.59
2022-12-04T10:43:55.599Z,101965.22
2022-12-04T10:46:25.848Z,101963.31
2022-12-04T10:48:56.412Z,101963.38
2022-12-04T10:51:24.529Z,101954.53
2022-12-04T10:53:53.256Z,101958.94
2022-12-04T10:56:25.128Z,101955.88
2022-12-04T10:58:58.218Z,101954.72
2022-12-04T11:01:28.111Z,101954.50
2022-12-04T11:04:01.357Z,101952.47
2022-12-04T11:06:30.034Z,101953.06
2022-12-04T11:08:59.632Z,101948.19
2022-12-04T11:11:32.415Z,101944.56
2022-12-04T11:14:05.227Z,101945.19
2022-12-04T11:16:40.309Z,101940.47
2022-12-04T11:19:23.515Z,101939.75
2022-12-04T11:21:52.597Z,101943.28
2022-12-04T11:24:27.762Z,101962.03
2022-12-04T11:26:58.345Z,101952.50
2022-12-04T11:29:32.493Z,101944.00
2022-12-04T11:32:07.188Z,101943.53
2022-12-04T11:34:39.533Z,101936.84
2022-12-04T11:37:16.679Z,101929.16
2022-12-04T11:39:46.304Z,101933.41
2022-12-04T11:42:20.727Z,101923.13
2022-12-04T11:44:53.813Z,101927.16
2022-12-04T11:47:23.592Z,101917.19
2022-12-04T11:50:13.167Z,101910.75
2022-12-04T11:52:56.299Z,101922.34
2022-12-04T11:55:29.697Z,101920.44
2022-12-04T11:58:16.723Z,101923.97
2022-12-04T12:00:53.713Z,101921.25
2022-12-04T12:03:27.734Z,101922.94
2022-12-04T12:06:31.246Z,101912.84
2022-12-04T12:09:09.873Z,101913.91
2022-12-04T12:11:43.826Z,101907.28
2022-12-04T12:14:24.423Z,101913.06
2022-12-04T12:17:00.374Z,101909.78
2022-12-04T12:19:42.518Z,101919.34
2022-12-04T12:22:21.845Z,101916.50
2022-12-04T12:24:59.862Z,101924.41
2022-12-04T12:27:47.542Z,101921.19
2022-12-04T12:30:20.979Z,101913.50
2022-12-04T12:33:03.635Z,101928.47
2022-12-04T12:35:36.257Z,101922.34
2022-12-04T12:38:10.784Z,101925.13
2022-12-04T12:40:43.030Z,101926.91
2022-12-04T12:43:17.407Z,101910.75
2022-12-04T12:45:55.210Z,101913.78
2022-12-04T12:48:30.796Z,101903.63
2022-12-04T12:51:29.247Z,101901.31
2022-12-04T12:53:58.062Z,101897.72
2022-12-04T12:56:33.831Z,101892.44
2022-12-04T12:59:05.836Z,101882.84
2022-12-04T13:01:46.411Z,101880.66
2022-12-04T13:04:21.728Z,101883.81
2022-12-04T13:06:55.456Z,101877.16
2022-12-04T13:09:27.141Z,101888.22
2022-12-04T13:12:00.526Z,101895.00
2022-12-04T13:14:28.629Z,101895.78
2022-12-04T13:17:04.049Z,101890.69
2022-12-04T13:19:41.814Z,101885.88
2022-12-04T13:22:17.833Z,101893.63
2022-12-04T13:25:08.332Z,101895.88
2022-12-04T13:27:47.950Z,101899.81
2022-12-04T13:30:20.915Z,101896.28
2022-12-04T13:33:20.750Z,101893.81
2022-12-04T13:36:12.292Z,101893.81
2022-12-04T13:38:57.687Z,101894.69
2022-12-04T13:41:29.102Z,101891.25
2022-12-04T13:44:00.717Z,101876.16
2022-12-04T13:46:35.490Z,101875.91
2022-12-04T13:49:26.405Z,101886.97
2022-12-04T13:51:55.590Z,101881.38
2022-12-04T13:54:27.096Z,101874.81
2022-12-04T13:56:56.987Z,101874.97
2022-12-04T13:59:40.599Z,101866.00
2022-12-04T14:02:26.640Z,101876.38
2022-12-04T14:04:59.022Z,101873.31
2022-12-04T14:07:31.567Z,101866.50
2022-12-04T14:10:04.820Z,101875.22
2022-12-04T14:12:37.694Z,101873.13
2022-12-04T14:15:09.090Z,101874.59
2022-12-04T14:17:39.682Z,101868.22
2022-12-04T14:20:25.834Z,101873.59
2022-12-04T14:22:54.120Z,101874.16
2022-12-04T14:25:33.343Z,101883.78
2022-12-04T14:28:01.730Z,101877.97
2022-12-04T14:30:37.385Z,101888.69
2022-12-04T14:33:11.043Z,101900.00
2022-12-04T14:35:49.173Z,101892.88
2022-12-04T14:38:21.320Z,101880.06
2022-12-04T14:40:51.772Z,101894.94
2022-12-04T14:43:22.480Z,101903.28
2022-12-04T14:45:57.302Z,101894.19
2022-12-04T14:48:36.410Z,101897.94
2022-12-04T14:51:16.049Z,101893.50
2022-12-04T14:53:50.334Z,101895.69
2022-12-04T14:56:45.365Z,101893.84
2022-12-04T14:59:20.674Z,101897.13
2022-12-04T15:01:50.932Z,101889.69
2022-12-04T15:04:23.344Z,101886.53
2022-12-04T15:07:00.013Z,101881.53
2022-12-04T15:09:46.326Z,101894.34
2022-12-04T15:12:39.176Z,101894.34
2022-12-04T15:15:16.361Z,101897.19
2022-12-04T15:17:44.765Z,101895.59
2022-12-04T15:20:17.582Z,101903.66
2022-12-04T15:22:48.400Z,101908.44
2022-12-04T15:25:20.015Z,101913.78
2022-12-04T15:27:49.502Z,101913.19
2022-12-04T15:30:20.683Z,101912.13
2022-12-04T15:32:53.198Z,101923.97
2022-12-04T15:35:25.246Z,101933.16
2022-12-04T15:37:54.928Z,101927.16
2022-12-04T15:40:25.162Z,101920.03
2022-12-04T15:42:56.113Z,101907.81
2022-12-04T15:45:35.186Z,101908.09
2022-12-04T15:48:03.303Z,101901.47
2022-12-04T15:50:32.073Z,101915.50
2022-12-04T15:53:08.313Z,101909.31
2022-12-04T15:55:40.744Z,101916.94
2022-12-04T15:58:21.353Z,101916.56
2022-12-04T16:00:56.190Z,101917.19
2022-12-04T16:03:27.929Z,101918.50
2022-12-04T16:06:10.476Z,101945.50
2022-12-04T16:08:42.573Z,101922.84
2022-12-04T16:11:28.871Z,101924.09
2022-12-04T16:14:06.307Z,101919.31
2022-12-04T16:16:34.284Z,101927.69
2022-12-04T16:19:06.892Z,101929.88
2022-12-04T16:21:35.528Z,101928.75
2022-12-04T16:24:12.268Z,101928.38
2022-12-04T16:26:40.666Z,101932.09
2022-12-04T16:29:09.067Z,101935.59
2022-12-04T16:31:39.169Z,101941.50
2022-12-04T16:34:06.992Z,101938.28
2022-12-04T16:36:35.556Z,101934.88
2022-12-04T16:39:05.266Z,101941.69
2022-12-04T16:41:33.657Z,101936.66
2022-12-04T16:44:02.521Z,101943.72
2022-12-04T16:46:31.279Z,101948.13
2022-12-04T16:49:04.193Z,101946.44
2022-12-04T16:51:37.445Z,101945.31
2022-12-04T16:54:07.602Z,101953.78
2022-12-04T16:56:35.572Z,101945.25
2022-12-04T16:59:07.690Z,101952.94
2022-12-04T17:01:41.377Z,101954.69
2022-12-04T17:04:10.352Z,101952.03
2022-12-04T17:06:38.729Z,101958.91
2022-12-04T17:09:08.694Z,101950.44
2022-12-04T17:11:37.262Z,101960.88
2022-12-04T17:14:07.351Z,101957.84
2022-12-04T17:16:36.416Z,101961.53
2022-12-04T17:19:06.380Z,101959.75
2022-12-04T17:21:35.920Z,101968.63
2022-12-04T17:24:04.338Z,101979.13
2022-12-04T17:26:33.922Z,101977.50
2022-12-04T17:29:02.000Z,101963.81
2022-12-04T17:31:31.152Z,101972.31
2022-12-04T17:33:59.349Z,101981.56
2022-12-04T17:36:28.577Z,101988.41
2022-12-04T17:38:58.323Z,101989.66
2022-12-04T17:41:26.557Z,101984.63
2022-12-04T17:43:55.965Z,101977.47
2022-12-04T17:46:24.777Z,101977.41
2022-12-04T17:48:53.035Z,101984.28
2022-12-04T17:51:23.745Z,101982.06
2022-12-04T17:53:52.927Z,101987.53
2022-12-04T17:56:23.154Z,101986.13
2022-12-04T17:58:51.599Z,101992.31
2022-12-04T18:01:23.023Z,101986.47
2022-12-04T18:03:52.223Z,101982.31
2022-12-04T18:06:23.234Z,101989.56
2022-12-04T18:08:52.271Z,101984.59
2022-12-04T18:11:21.583Z,101995.03
2022-12-04T18:13:49.801Z,101986.63
2022-12-04T18:16:21.171Z,101993.59
2022-12-04T18:18:50.890Z,102015.06
2022-12-04T18:21:19.208Z,102004.28
2022-12-04T18:23:47.457Z,102014.22
2022-12-04T18:26:17.354Z,102007.13
2022-12-04T18:28:45.889Z,102008.91
2022-12-04T18:31:15.387Z,102013.41
2022-12-04T18:33:46.226Z,102011.91
2022-12-04T18:36:19.965Z,102010.31
2022-12-04T18:38:48.843Z,102010.22
2022-12-04T18:41:17.072Z,102010.66
2022-12-04T18:43:46.765Z,102011.38
2022-12-04T18:46:17.395Z,102013.31
2022-12-04T18:48:48.428Z,102016.13
2022-12-04T18:51:24.804Z,102036.19
2022-12-04T18:53:57.679Z,102033.66
2022-12-04T18:56:26.448Z,102039.41
2022-12-04T18:59:00.732Z,102032.75
2022-12-04T19:01:31.387Z,102034.19
2022-12-04T19:04:04.623Z,102030.63
2022-12-04T19:06:34.367Z,102030.63
2022-12-04T19:09:05.545Z,102034.34
2022-12-04T19:11:34.951Z,102025.41
2022-12-04T19:14:12.530Z,102048.22
2022-12-04T19:16:44.993Z,102041.84
2022-12-04T19:19:15.947Z,102048.13
2022-12-04T19:21:44.829Z,102053.25
2022-12-04T19:24:13.854Z,102058.38
2022-12-04T19:26:42.947Z,102051.13
2022-12-04T19:29:13.874Z,102043.88
2022-12-04T19:31:42.431Z,102042.63
2022-12-04T19:34:10.617Z,102043.63
2022-12-04T19:36:41.243Z,102049.00
2022-12-04T19:39:09.400Z,102053.09
2022-12-04T19:41:40.853Z,102062.97
2022-12-04T19:44:46.249Z,102064.94
2022-12-04T19:46:58.794Z,102069.06
2022-12-04T19:49:32.693Z,102080.19
2022-12-04T19:52:02.769Z,102085.31
2022-12-04T19:54:31.195Z,102078.41
2022-12-04T19:57:04.509Z,102076.69
2022-12-04T19:59:36.957Z,102076.47
2022-12-04T20:02:08.171Z,102080.63
2022-12-04T20:04:36.224Z,102071.09
2022-12-04T20:07:05.923Z,102074.44
2022-12-04T20:09:34.505Z,102085.03
2022-12-04T20:12:03.188Z,102089.13
2022-12-04T20:14:32.863Z,102094.78
2022-12-04T20:17:04.123Z,102093.19
2022-12-04T20:19:32.318Z,102105.03
2022-12-04T20:22:00.626Z,102109.28
2022-12-04T20:24:30.050Z,102111.84
2022-12-04T20:26:58.256Z,102115.81
2022-12-04T20:29:26.372Z,102104.41
2022-12-04T20:31:54.758Z,102102.56
2022-12-04T20:34:22.829Z,102107.56
2022-12-04T20:36:51.075Z,102105.91
2022-12-04T20:39:20.745Z,102109.53
2022-12-04T20:41:50.252Z,102120.56
2022-12-04T20:44:22.930Z,102130.75
2022-12-04T20:46:53.981Z,102133.19
2022-12-04T20:49:22.738Z,102129.06
2022-12-04T20:51:52.375Z,102116.50
2022-12-04T20:54:23.287Z,102117.38
2022-12-04T20:56:54.544Z,102120.94
2022-12-04T20:59:24.141Z,102121.13
2022-12-04T21:01:52.966Z,102118.03
2022-12-04T21:04:22.205Z,102133.66
2022-12-04T21:06:50.545Z,102133.81
2022-12-04T21:09:21.123Z,102143.47
2022-12-04T21:12:00.409Z,102134.16
2022-12-04T21:14:47.385Z,102136.84
2022-12-04T21:17:18.978Z,102129.03
2022-12-04T21:19:48.861Z,102134.34
2022-12-04T21:22:18.821Z,102153.28
2022-12-04T21:24:46.950Z,102161.94
2022-12-04T21:27:20.919Z,102159.47
2022-12-04T21:29:50.304Z,102158.56
2022-12-04T21:32:19.468Z,102159.28
2022-12-04T21:34:47.555Z,102163.63
2022-12-04T21:37:15.986Z,102165.31
2022-12-04T21:39:44.437Z,102169.25
2022-12-04T21:42:30.155Z,102171.56
2022-12-04T21:45:00.122Z,102174.75
2022-12-04T21:47:28.557Z,102176.25
2022-12-04T21:49:56.856Z,102177.91
2022-12-04T21:52:25.360Z,102170.94
2022-12-04T21:54:55.113Z,102172.63
2022-12-04T21:57:24.176Z,102152.22
2022-12-04T21:59:53.399Z,102182.09
2022-12-04T22:02:23.129Z,102185.59
2022-12-04T22:04:51.264Z,102199.31
2022-12-04T22:07:19.538Z,102203.47
2022-12-04T22:09:47.678Z,102189.69
2022-12-04T22:15:03.943Z,102196.50
2022-12-04T22:17:33.416Z,102185.25
2022-12-04T22:20:01.677Z,102171.66
2022-12-04T22:22:29.744Z,102177.66
2022-12-04T22:25:01.196Z,102191.44
2022-12-04T22:27:29.671Z,102200.91
2022-12-04T22:29:57.969Z,102207.25
2022-12-04T22:32:25.990Z,102211.06
2022-12-04T22:34:55.395Z,102219.31
2022-12-04T22:37:24.373Z,102218.47
2022-12-04T22:39:52.459Z,102227.66
2022-12-04T22:42:20.548Z,102235.13
2022-12-04T22:44:48.764Z,102242.66
2022-12-04T22:47:16.777Z,102240.78
2022-12-04T22:49:45.191Z,102243.44
2022-12-04T22:52:15.636Z,102261.38
2022-12-04T22:54:43.769Z,102253.69
2022-12-04T22:57:11.926Z,102240.78
2022-12-04T22:59:40.000Z,102222.25
2022-12-04T23:02:08.152Z,102224.28
2022-12-04T23:04:36.384Z,102221.09
2022-12-04T23:07:05.501Z,102214.41
2022-12-04T23:09:35.052Z,102222.28
2022-12-04T23:12:03.602Z,102221.50
2022-12-04T23:14:33.689Z,102229.97
2022-12-04T23:17:02.054Z,102235.59
2022-12-04T23:19:31.417Z,102225.78
2022-12-04T23:21:59.623Z,102225.50
2022-12-04T23:24:27.882Z,102214.34
2022-12-04T23:26:57.500Z,102209.22
2022-12-04T23:32:15.298Z,102205.28
2022-12-04T23:34:43.419Z,102197.69
2022-12-04T23:37:11.773Z,102202.63
2022-12-04T23:39:39.930Z,102200.75
2022-12-04T23:42:09.356Z,102225.44
2022-12-04T23:44:37.474Z,102232.56
2022-12-04T23:47:08.319Z,102237.03
2022-12-04T23:49:36.609Z,102233.75
2022-12-04T23:52:04.783Z,102245.56
2022-12-04T23:54:35.100Z,102244.59
2022-12-04T23:57:03.522Z,102251.72
2022-12-04T23:59:33.044Z,102250.19
